x

Middle Nomad (46004) Wave Buoy

11:00pm - Fri 31st Oct 2014 All times are PDT. -7 hours from GMT.

  • Sig Wave height 10.2ft
  • Peak Period 6s
  • Wind
    27mph, 31mph gusts
  • Air Temp 54°f
  • Sea Pressure 1003.4mb
  • Middle Nomad
  • Middle Nomad

More Historic Weather Station data

Upgrade to MSW Pro to gain access to the past 30 days of data for over 8000 Wavebouys and Weather Stations around the globe.

Join Pro

Comparision Forecast

View Surf forecast
   
Fri 10/31 11:00pm 10ft 6s 27 31 mph 1003.4mb 54f
10:00pm 9ft 11s 31 36 mph 1003.3mb 52f
9:00pm 8.5ft 11s 27 31 mph 1004.1mb 52f
8:00pm 9ft 12s 25 29 mph 1004.6mb 52f
7:00pm 8ft 8s 22 29 mph 1005.4mb 52f
6:00pm 9ft 11s 22 27 mph 1005.7mb 52f
5:00pm 8.5ft 12s 22 27 mph 1006.2mb 52f
3:00pm 9ft 11s 22 27 mph 1007.1mb 51f
2:00pm 9ft 12s 20 25 mph 1007.5mb 51f
1:00pm 9ft 11s 18 25 mph 1007.9mb 51f
12:00pm 9ft 12s 18 22 mph 1007.9mb 51f
11:00am 9ft 13s 16 20 mph 1008.3mb 51f
10:00am 9.5ft 12s 13 18 mph 1008.2mb 51f
9:00am 10ft 13s 13 18 mph 1008.1mb 51f
8:00am 9.5ft 12s 11 18 mph 1007.8mb 51f
7:00am 10ft 14s 13 18 mph 1007.6mb 51f
6:00am 9ft 14s 11 16 mph 1007mb 51f
5:00am 10ft 12s 13 16 mph 1006.8mb 50f
4:00am 10ft 13s 11 16 mph 1006.9mb 50f
3:00am 11ft 14s 9 13 mph 1006.8mb 50f
2:00am 11.5ft 14s 11 16 mph 1006.4mb 50f
1:00am 11.5ft 14s 11 16 mph 1006mb 50f
12:00am 11.5ft 13s 13 18 mph 1005.4mb 50f
Thu 10/30 11:00pm 11ft 14s 13 16 mph 1004.9mb 50f
10:00pm 11.5ft 14s 9 11 mph 1004.6mb 50f
9:00pm 12ft 14s 11 16 mph 1004.2mb 50f
8:00pm 13ft 14s 9 13 mph 1003.7mb 50f
7:00pm 12ft 15s 9 13 mph 1002.9mb 50f
6:00pm 13ft 14s 13 18 mph 1001.9mb 50f
5:00pm 11.5ft 14s 16 18 mph 1001.2mb 50f
4:00pm 10.5ft 13s 13 20 mph 1000.9mb 50f
3:00pm 11.5ft 13s 9 18 mph 1000.6mb 50f
2:00pm 10ft 13s 13 16 mph 1000mb 50f
1:00pm 9.5ft 14s 13 18 mph 999.7mb 50f
12:00pm 9ft 14s 13 18 mph 999.6mb 50f
11:00am 9.5ft 13s 13 18 mph 999.2mb 50f
10:00am 9.5ft 12s 13 18 mph 998.9mb 50f
9:00am 10ft 14s 16 20 mph 998.5mb 49f
8:00am 10ft 14s 13 18 mph 998.6mb 49f
7:00am 10ft 14s 11 16 mph 999.1mb 49f
6:00am 11ft 14s 13 16 mph 999.2mb 49f
5:00am 11ft 14s 9 16 mph 999.8mb 49f
4:00am 11ft 13s 13 16 mph 1000.1mb 49f
3:00am 10ft 14s 11 16 mph 1000.7mb 49f
2:00am 10ft 14s 7 11 mph 1001.2mb 49f
1:00am 10ft 14s 7 9 mph 1001.5mb 49f
12:00am 9ft 9s 4 9 mph 1002mb 50f
Wed 10/29 11:00pm 8ft 9s 4 9 mph 1002.4mb 49f
10:00pm 7.5ft 10s 7 11 mph 1002.6mb 50f
9:00pm 7ft 8s 9 11 mph 1002.2mb 50f
8:00pm 7ft 8s 7 11 mph 1002.8mb 50f
7:00pm 7ft 8s 7 9 mph 1003mb 50f
6:00pm 7ft 10s 9 11 mph 1002.9mb 50f
5:00pm 6ft 8s 9 13 mph 1003.9mb 48f
4:00pm 6.5ft 10s 11 13 mph 1004.1mb 49f
3:00pm 7ft 10s 11 16 mph 1004.3mb 49f
2:00pm 6.5ft 11s 11 13 mph 1004.8mb 48f
1:00pm 6.5ft 9s 4
mph
1004.4mb 48f
12:00pm 7ft 10s 16 20 mph 1004.6mb 47f
11:00am 7ft 9s 16 18 mph 1004.7mb 48f
10:00am 7ft 11s 9 11 mph 1004.9mb 49f
9:00am 7ft 11s 11 18 mph 1005.2mb 50f
8:00am 7ft 11s 18 20 mph 1005mb 51f
7:00am 8ft 8s 11 13 mph 1005.4mb 51f
6:00am 8ft 9s 9 11 mph 1005.8mb 52f
5:00am 8ft 10s 16 20 mph 1005.7mb 52f
4:00am 8ft 10s 18 22 mph 1006.1mb 53f
3:00am 9.5ft 10s 16 18 mph 1006.5mb 52f
2:00am 9ft 10s 18 27 mph 1006.5mb 53f
1:00am 10ft 11s 13 18 mph 1006.3mb 53f
12:00am 9.5ft 10s 18 22 mph 1006.2mb 52f
Tue 10/28 11:00pm 9.5ft 10s 20 25 mph 1005.8mb 53f
10:00pm 10ft 11s 16 20 mph 1005.3mb 53f
9:00pm 10.5ft 12s 16 20 mph 1004.6mb 52f
8:00pm 10ft 12s 22 25 mph 1004mb 50f
7:00pm 10ft 11s 18 20 mph 1003.2mb 52f
6:00pm 11ft 12s 20 25 mph 1002.3mb 52f
5:00pm 11ft 12s 18 22 mph 1001.6mb 53f
4:00pm 12ft 13s 18 25 mph 1000.7mb 53f
3:00pm 12ft 13s 20 27 mph 999.8mb 53f
2:00pm 12ft 10s 22 27 mph 998.8mb 53f
1:00pm 12ft 13s 22 27 mph 997.9mb 53f
12:00pm 13ft 11s 22 27 mph 996.7mb 52f
11:00am 13ft 11s 27 31 mph 995.3mb 53f
10:00am 13ft 10s 27 34 mph 993.9mb 52f
9:00am 13.5ft 12s 27 34 mph 992.3mb 53f
8:00am 12ft 12s 27 34 mph 990.9mb 53f